sensor_id;sensor_type;location;lat;lon;timestamp;P1;durP1;ratioP1;P2;durP2;ratioP2
8094;SDS011;4090;49.270;8.696;2024-02-15T00:00:45;12.60;;;6.85;;
8094;SDS011;4090;49.270;8.696;2024-02-15T00:03:27;9.88;;;6.85;;
8094;SDS011;4090;49.270;8.696;2024-02-15T00:06:09;14.35;;;7.45;;
8094;SDS011;4090;49.270;8.696;2024-02-15T00:08:53;11.93;;;6.38;;
8094;SDS011;4090;49.270;8.696;2024-02-15T00:11:35;11.40;;;6.60;;
8094;SDS011;4090;49.270;8.696;2024-02-15T00:14:19;9.45;;;6.15;;
8094;SDS011;4090;49.270;8.696;2024-02-15T00:17:01;8.38;;;5.72;;
8094;SDS011;4090;49.270;8.696;2024-02-15T00:19:44;10.40;;;6.20;;
8094;SDS011;4090;49.270;8.696;2024-02-15T00:22:27;12.05;;;7.03;;
8094;SDS011;4090;49.270;8.696;2024-02-15T00:25:10;12.15;;;6.53;;
8094;SDS011;4090;49.270;8.696;2024-02-15T00:27:54;8.88;;;5.68;;
8094;SDS011;4090;49.270;8.696;2024-02-15T00:30:36;8.70;;;5.35;;
8094;SDS011;4090;49.270;8.696;2024-02-15T00:33:18;9.95;;;5.20;;
8094;SDS011;4090;49.270;8.696;2024-02-15T00:36:00;8.65;;;5.00;;
8094;SDS011;4090;49.270;8.696;2024-02-15T00:38:42;8.07;;;5.05;;
8094;SDS011;4090;49.270;8.696;2024-02-15T00:41:26;9.20;;;4.53;;
8094;SDS011;4090;49.270;8.696;2024-02-15T00:44:09;8.18;;;4.55;;
8094;SDS011;4090;49.270;8.696;2024-02-15T00:46:51;5.63;;;4.00;;
8094;SDS011;4090;49.270;8.696;2024-02-15T00:49:33;8.20;;;4.75;;
8094;SDS011;4090;49.270;8.696;2024-02-15T00:52:16;7.38;;;4.20;;
8094;SDS011;4090;49.270;8.696;2024-02-15T00:54:58;6.20;;;4.13;;
8094;SDS011;4090;49.270;8.696;2024-02-15T00:57:42;6.32;;;3.78;;
8094;SDS011;4090;49.270;8.696;2024-02-15T01:00:24;5.60;;;3.70;;
8094;SDS011;4090;49.270;8.696;2024-02-15T01:03:06;6.22;;;3.95;;
8094;SDS011;4090;49.270;8.696;2024-02-15T01:05:48;4.38;;;2.88;;
8094;SDS011;4090;49.270;8.696;2024-02-15T01:08:31;5.65;;;3.58;;
8094;SDS011;4090;49.270;8.696;2024-02-15T01:11:14;4.03;;;3.30;;
8094;SDS011;4090;49.270;8.696;2024-02-15T01:13:57;5.18;;;3.53;;
8094;SDS011;4090;49.270;8.696;2024-02-15T01:16:39;5.70;;;3.90;;
8094;SDS011;4090;49.270;8.696;2024-02-15T01:19:21;9.82;;;3.92;;
8094;SDS011;4090;49.270;8.696;2024-02-15T01:22:03;7.18;;;3.88;;
8094;SDS011;4090;49.270;8.696;2024-02-15T01:24:47;5.88;;;3.95;;
8094;SDS011;4090;49.270;8.696;2024-02-15T01:27:29;7.57;;;3.75;;
8094;SDS011;4090;49.270;8.696;2024-02-15T01:30:13;8.40;;;3.90;;
8094;SDS011;4090;49.270;8.696;2024-02-15T01:32:55;6.35;;;3.88;;
8094;SDS011;4090;49.270;8.696;2024-02-15T01:35:37;5.38;;;3.80;;
8094;SDS011;4090;49.270;8.696;2024-02-15T01:38:19;5.85;;;3.70;;
8094;SDS011;4090;49.270;8.696;2024-02-15T01:41:01;5.88;;;3.70;;
8094;SDS011;4090;49.270;8.696;2024-02-15T01:43:43;8.85;;;3.33;;
8094;SDS011;4090;49.270;8.696;2024-02-15T01:46:27;4.72;;;3.70;;
8094;SDS011;4090;49.270;8.696;2024-02-15T01:49:11;5.70;;;3.53;;
8094;SDS011;4090;49.270;8.696;2024-02-15T01:51:53;5.07;;;3.20;;
8094;SDS011;4090;49.270;8.696;2024-02-15T01:54:37;3.70;;;3.03;;
8094;SDS011;4090;49.270;8.696;2024-02-15T01:57:20;8.00;;;3.38;;
8094;SDS011;4090;49.270;8.696;2024-02-15T02:00:03;3.00;;;2.60;;
8094;SDS011;4090;49.270;8.696;2024-02-15T02:03:01;3.85;;;2.78;;
8094;SDS011;4090;49.270;8.696;2024-02-15T02:05:44;4.47;;;2.60;;
8094;SDS011;4090;49.270;8.696;2024-02-15T02:08:26;8.27;;;3.22;;
8094;SDS011;4090;49.270;8.696;2024-02-15T02:11:08;3.85;;;2.55;;
8094;SDS011;4090;49.270;8.696;2024-02-15T02:13:50;5.75;;;2.72;;
8094;SDS011;4090;49.270;8.696;2024-02-15T02:16:32;4.72;;;3.30;;
8094;SDS011;4090;49.270;8.696;2024-02-15T02:19:17;6.97;;;2.58;;
8094;SDS011;4090;49.270;8.696;2024-02-15T02:21:59;5.55;;;2.83;;
8094;SDS011;4090;49.270;8.696;2024-02-15T02:24:44;5.20;;;2.75;;
8094;SDS011;4090;49.270;8.696;2024-02-15T02:27:39;7.03;;;2.50;;
8094;SDS011;4090;49.270;8.696;2024-02-15T02:30:21;4.47;;;2.70;;
8094;SDS011;4090;49.270;8.696;2024-02-15T02:33:03;3.83;;;2.50;;
8094;SDS011;4090;49.270;8.696;2024-02-15T02:35:47;2.55;;;2.08;;
8094;SDS011;4090;49.270;8.696;2024-02-15T02:38:29;4.03;;;2.35;;
8094;SDS011;4090;49.270;8.696;2024-02-15T02:41:13;4.80;;;2.50;;
8094;SDS011;4090;49.270;8.696;2024-02-15T02:43:55;6.93;;;2.42;;
8094;SDS011;4090;49.270;8.696;2024-02-15T02:46:37;5.53;;;2.47;;
8094;SDS011;4090;49.270;8.696;2024-02-15T02:49:20;3.50;;;2.42;;
8094;SDS011;4090;49.270;8.696;2024-02-15T02:52:03;3.70;;;2.60;;
8094;SDS011;4090;49.270;8.696;2024-02-15T02:54:45;3.13;;;2.33;;
8094;SDS011;4090;49.270;8.696;2024-02-15T02:57:28;4.72;;;2.30;;
8094;SDS011;4090;49.270;8.696;2024-02-15T03:00:12;3.97;;;2.70;;
8094;SDS011;4090;49.270;8.696;2024-02-15T03:02:56;5.25;;;3.03;;
8094;SDS011;4090;49.270;8.696;2024-02-15T03:05:39;3.70;;;2.70;;
8094;SDS011;4090;49.270;8.696;2024-02-15T03:08:21;3.53;;;2.15;;
8094;SDS011;4090;49.270;8.696;2024-02-15T03:11:04;2.85;;;2.30;;
8094;SDS011;4090;49.270;8.696;2024-02-15T03:13:48;4.10;;;2.67;;
8094;SDS011;4090;49.270;8.696;2024-02-15T03:16:30;5.32;;;2.78;;
8094;SDS011;4090;49.270;8.696;2024-02-15T03:19:12;6.13;;;2.70;;
8094;SDS011;4090;49.270;8.696;2024-02-15T03:21:54;5.28;;;2.67;;
8094;SDS011;4090;49.270;8.696;2024-02-15T03:24:36;3.45;;;2.85;;
8094;SDS011;4090;49.270;8.696;2024-02-15T03:27:19;5.68;;;2.40;;
8094;SDS011;4090;49.270;8.696;2024-02-15T03:30:05;3.45;;;2.80;;
8094;SDS011;4090;49.270;8.696;2024-02-15T03:32:48;5.13;;;2.60;;
8094;SDS011;4090;49.270;8.696;2024-02-15T03:35:31;4.85;;;2.50;;
8094;SDS011;4090;49.270;8.696;2024-02-15T03:38:13;4.78;;;2.60;;
8094;SDS011;4090;49.270;8.696;2024-02-15T03:40:55;5.78;;;2.50;;
8094;SDS011;4090;49.270;8.696;2024-02-15T03:43:37;3.38;;;2.72;;
8094;SDS011;4090;49.270;8.696;2024-02-15T03:46:20;4.10;;;2.40;;
8094;SDS011;4090;49.270;8.696;2024-02-15T03:49:04;3.78;;;2.70;;
8094;SDS011;4090;49.270;8.696;2024-02-15T03:51:48;3.20;;;2.60;;
8094;SDS011;4090;49.270;8.696;2024-02-15T03:54:30;4.82;;;2.45;;
8094;SDS011;4090;49.270;8.696;2024-02-15T03:57:12;4.43;;;2.70;;
8094;SDS011;4090;49.270;8.696;2024-02-15T03:59:54;5.18;;;2.60;;
8094;SDS011;4090;49.270;8.696;2024-02-15T04:02:38;3.65;;;2.55;;
8094;SDS011;4090;49.270;8.696;2024-02-15T04:05:21;5.43;;;2.47;;
8094;SDS011;4090;49.270;8.696;2024-02-15T04:08:03;4.53;;;2.05;;
8094;SDS011;4090;49.270;8.696;2024-02-15T04:10:46;5.70;;;2.67;;
8094;SDS011;4090;49.270;8.696;2024-02-15T04:13:28;4.20;;;2.67;;
8094;SDS011;4090;49.270;8.696;2024-02-15T04:16:10;3.53;;;2.35;;
8094;SDS011;4090;49.270;8.696;2024-02-15T04:18:55;3.13;;;2.35;;
8094;SDS011;4090;49.270;8.696;2024-02-15T04:21:37;5.13;;;2.63;;
8094;SDS011;4090;49.270;8.696;2024-02-15T04:24:20;2.50;;;2.03;;
8094;SDS011;4090;49.270;8.696;2024-02-15T04:27:02;4.90;;;2.50;;
8094;SDS011;4090;49.270;8.696;2024-02-15T04:29:44;5.63;;;2.50;;
8094;SDS011;4090;49.270;8.696;2024-02-15T04:32:26;4.22;;;2.53;;
8094;SDS011;4090;49.270;8.696;2024-02-15T04:35:10;5.10;;;2.35;;
8094;SDS011;4090;49.270;8.696;2024-02-15T04:37:52;4.07;;;2.50;;
8094;SDS011;4090;49.270;8.696;2024-02-15T04:40:37;5.03;;;2.38;;
8094;SDS011;4090;49.270;8.696;2024-02-15T04:43:19;3.40;;;2.40;;
8094;SDS011;4090;49.270;8.696;2024-02-15T04:46:03;4.63;;;2.45;;
8094;SDS011;4090;49.270;8.696;2024-02-15T04:48:47;4.70;;;2.50;;
8094;SDS011;4090;49.270;8.696;2024-02-15T04:51:31;3.90;;;2.33;;
8094;SDS011;4090;49.270;8.696;2024-02-15T04:54:13;3.20;;;2.42;;
8094;SDS011;4090;49.270;8.696;2024-02-15T04:56:56;3.08;;;2.30;;
8094;SDS011;4090;49.270;8.696;2024-02-15T04:59:38;3.35;;;2.17;;
8094;SDS011;4090;49.270;8.696;2024-02-15T05:02:20;3.15;;;2.20;;
8094;SDS011;4090;49.270;8.696;2024-02-15T05:05:02;5.38;;;2.85;;
8094;SDS011;4090;49.270;8.696;2024-02-15T05:07:46;3.97;;;2.42;;
8094;SDS011;4090;49.270;8.696;2024-02-15T05:10:29;4.03;;;2.10;;
8094;SDS011;4090;49.270;8.696;2024-02-15T05:13:11;3.47;;;2.25;;
8094;SDS011;4090;49.270;8.696;2024-02-15T05:15:54;3.97;;;2.47;;
8094;SDS011;4090;49.270;8.696;2024-02-15T05:18:36;4.18;;;2.30;;
8094;SDS011;4090;49.270;8.696;2024-02-15T05:21:20;3.75;;;2.10;;
8094;SDS011;4090;49.270;8.696;2024-02-15T05:24:04;4.75;;;2.42;;
8094;SDS011;4090;49.270;8.696;2024-02-15T05:26:46;4.38;;;2.58;;
8094;SDS011;4090;49.270;8.696;2024-02-15T05:29:29;4.97;;;2.50;;
8094;SDS011;4090;49.270;8.696;2024-02-15T05:32:14;4.95;;;2.47;;
8094;SDS011;4090;49.270;8.696;2024-02-15T05:34:58;2.60;;;2.10;;
8094;SDS011;4090;49.270;8.696;2024-02-15T05:37:42;4.05;;;2.42;;
8094;SDS011;4090;49.270;8.696;2024-02-15T05:40:27;4.55;;;2.40;;
8094;SDS011;4090;49.270;8.696;2024-02-15T05:43:10;4.82;;;2.10;;
8094;SDS011;4090;49.270;8.696;2024-02-15T05:45:54;3.85;;;2.15;;
8094;SDS011;4090;49.270;8.696;2024-02-15T05:48:39;4.43;;;2.05;;
8094;SDS011;4090;49.270;8.696;2024-02-15T05:51:22;3.00;;;2.20;;
8094;SDS011;4090;49.270;8.696;2024-02-15T05:54:04;7.45;;;2.60;;
8094;SDS011;4090;49.270;8.696;2024-02-15T05:56:47;4.32;;;2.30;;
8094;SDS011;4090;49.270;8.696;2024-02-15T05:59:32;4.40;;;2.22;;
8094;SDS011;4090;49.270;8.696;2024-02-15T06:02:14;5.57;;;2.40;;
8094;SDS011;4090;49.270;8.696;2024-02-15T06:04:56;4.25;;;2.40;;
8094;SDS011;4090;49.270;8.696;2024-02-15T06:07:41;6.18;;;2.53;;
8094;SDS011;4090;49.270;8.696;2024-02-15T06:10:24;6.20;;;2.10;;
8094;SDS011;4090;49.270;8.696;2024-02-15T06:13:08;3.45;;;2.20;;
8094;SDS011;4090;49.270;8.696;2024-02-15T06:15:50;4.45;;;2.10;;
8094;SDS011;4090;49.270;8.696;2024-02-15T06:18:34;3.28;;;2.08;;
8094;SDS011;4090;49.270;8.696;2024-02-15T06:21:17;6.57;;;2.10;;
8094;SDS011;4090;49.270;8.696;2024-02-15T06:24:01;3.05;;;2.13;;
8094;SDS011;4090;49.270;8.696;2024-02-15T06:26:43;4.28;;;2.40;;
8094;SDS011;4090;49.270;8.696;2024-02-15T06:29:27;4.35;;;2.20;;
8094;SDS011;4090;49.270;8.696;2024-02-15T06:32:27;3.30;;;2.15;;
8094;SDS011;4090;49.270;8.696;2024-02-15T06:35:27;4.38;;;2.22;;
8094;SDS011;4090;49.270;8.696;2024-02-15T06:38:26;3.83;;;2.00;;
8094;SDS011;4090;49.270;8.696;2024-02-15T06:41:26;3.22;;;2.30;;
8094;SDS011;4090;49.270;8.696;2024-02-15T06:44:09;5.22;;;2.50;;
8094;SDS011;4090;49.270;8.696;2024-02-15T06:46:53;3.13;;;2.13;;
8094;SDS011;4090;49.270;8.696;2024-02-15T06:49:36;4.22;;;2.40;;
8094;SDS011;4090;49.270;8.696;2024-02-15T06:52:20;4.97;;;2.10;;
8094;SDS011;4090;49.270;8.696;2024-02-15T06:55:03;2.47;;;2.00;;
8094;SDS011;4090;49.270;8.696;2024-02-15T06:57:45;2.22;;;1.80;;
8094;SDS011;4090;49.270;8.696;2024-02-15T07:00:27;4.57;;;2.67;;
8094;SDS011;4090;49.270;8.696;2024-02-15T07:03:12;4.97;;;1.90;;
8094;SDS011;4090;49.270;8.696;2024-02-15T07:05:57;4.93;;;1.85;;
8094;SDS011;4090;49.270;8.696;2024-02-15T07:08:39;4.50;;;2.30;;
8094;SDS011;4090;49.270;8.696;2024-02-15T07:11:21;3.72;;;1.85;;
8094;SDS011;4090;49.270;8.696;2024-02-15T07:14:03;2.58;;;1.80;;
8094;SDS011;4090;49.270;8.696;2024-02-15T07:16:47;2.60;;;2.05;;
8094;SDS011;4090;49.270;8.696;2024-02-15T07:19:32;4.22;;;2.22;;
8094;SDS011;4090;49.270;8.696;2024-02-15T07:22:16;5.80;;;2.33;;
8094;SDS011;4090;49.270;8.696;2024-02-15T07:24:58;7.13;;;2.15;;
8094;SDS011;4090;49.270;8.696;2024-02-15T07:27:40;2.10;;;1.90;;
8094;SDS011;4090;49.270;8.696;2024-02-15T07:30:22;3.72;;;2.20;;
8094;SDS011;4090;49.270;8.696;2024-02-15T07:33:05;3.17;;;2.40;;
8094;SDS011;4090;49.270;8.696;2024-02-15T07:35:49;3.30;;;2.22;;
8094;SDS011;4090;49.270;8.696;2024-02-15T07:38:31;6.75;;;2.80;;
8094;SDS011;4090;49.270;8.696;2024-02-15T07:41:15;5.15;;;3.10;;
8094;SDS011;4090;49.270;8.696;2024-02-15T07:43:58;4.03;;;3.10;;
8094;SDS011;4090;49.270;8.696;2024-02-15T07:46:41;6.68;;;3.13;;
8094;SDS011;4090;49.270;8.696;2024-02-15T07:49:23;7.03;;;3.25;;
8094;SDS011;4090;49.270;8.696;2024-02-15T07:52:06;8.52;;;3.70;;
8094;SDS011;4090;49.270;8.696;2024-02-15T07:54:49;6.78;;;4.00;;
8094;SDS011;4090;49.270;8.696;2024-02-15T07:57:32;5.40;;;3.95;;
8094;SDS011;4090;49.270;8.696;2024-02-15T08:00:15;7.03;;;4.75;;
8094;SDS011;4090;49.270;8.696;2024-02-15T08:02:57;10.02;;;4.60;;
8094;SDS011;4090;49.270;8.696;2024-02-15T08:05:40;7.80;;;4.43;;
8094;SDS011;4090;49.270;8.696;2024-02-15T08:08:23;7.75;;;4.90;;
8094;SDS011;4090;49.270;8.696;2024-02-15T08:11:05;7.57;;;4.45;;
8094;SDS011;4090;49.270;8.696;2024-02-15T08:13:51;8.25;;;5.20;;
8094;SDS011;4090;49.270;8.696;2024-02-15T08:16:35;8.55;;;5.60;;
8094;SDS011;4090;49.270;8.696;2024-02-15T08:19:17;7.95;;;5.30;;
8094;SDS011;4090;49.270;8.696;2024-02-15T08:22:02;7.18;;;5.05;;
8094;SDS011;4090;49.270;8.696;2024-02-15T08:24:46;7.60;;;4.90;;
8094;SDS011;4090;49.270;8.696;2024-02-15T08:27:28;9.15;;;5.15;;
8094;SDS011;4090;49.270;8.696;2024-02-15T08:30:13;6.28;;;4.53;;
8094;SDS011;4090;49.270;8.696;2024-02-15T08:32:55;15.45;;;6.00;;
8094;SDS011;4090;49.270;8.696;2024-02-15T08:35:38;9.95;;;5.07;;
8094;SDS011;4090;49.270;8.696;2024-02-15T08:38:21;10.68;;;5.68;;
8094;SDS011;4090;49.270;8.696;2024-02-15T08:41:05;9.57;;;5.80;;
8094;SDS011;4090;49.270;8.696;2024-02-15T08:43:48;9.63;;;5.38;;
8094;SDS011;4090;49.270;8.696;2024-02-15T08:46:30;9.13;;;5.75;;
8094;SDS011;4090;49.270;8.696;2024-02-15T08:49:12;9.88;;;5.45;;
8094;SDS011;4090;49.270;8.696;2024-02-15T08:51:54;10.45;;;5.05;;
8094;SDS011;4090;49.270;8.696;2024-02-15T08:54:36;8.35;;;5.00;;
8094;SDS011;4090;49.270;8.696;2024-02-15T08:57:21;7.82;;;5.05;;
8094;SDS011;4090;49.270;8.696;2024-02-15T09:00:04;12.02;;;5.38;;
8094;SDS011;4090;49.270;8.696;2024-02-15T09:02:50;7.95;;;5.13;;
8094;SDS011;4090;49.270;8.696;2024-02-15T09:05:33;8.15;;;5.15;;
8094;SDS011;4090;49.270;8.696;2024-02-15T09:08:15;8.85;;;5.22;;
8094;SDS011;4090;49.270;8.696;2024-02-15T09:11:00;12.38;;;5.22;;
8094;SDS011;4090;49.270;8.696;2024-02-15T09:13:44;6.78;;;4.43;;
8094;SDS011;4090;49.270;8.696;2024-02-15T09:16:27;8.13;;;4.22;;
8094;SDS011;4090;49.270;8.696;2024-02-15T09:19:10;6.50;;;4.20;;
8094;SDS011;4090;49.270;8.696;2024-02-15T09:21:52;6.35;;;4.10;;
8094;SDS011;4090;49.270;8.696;2024-02-15T09:24:36;6.13;;;4.38;;
8094;SDS011;4090;49.270;8.696;2024-02-15T09:27:19;9.35;;;4.18;;
8094;SDS011;4090;49.270;8.696;2024-02-15T09:30:03;7.97;;;4.07;;
8094;SDS011;4090;49.270;8.696;2024-02-15T09:32:50;5.88;;;3.83;;
8094;SDS011;4090;49.270;8.696;2024-02-15T09:35:32;7.88;;;4.53;;
8094;SDS011;4090;49.270;8.696;2024-02-15T09:38:14;5.82;;;3.80;;
8094;SDS011;4090;49.270;8.696;2024-02-15T09:40:57;7.78;;;4.20;;
8094;SDS011;4090;49.270;8.696;2024-02-15T09:43:42;8.70;;;3.90;;
8094;SDS011;4090;49.270;8.696;2024-02-15T09:46:25;6.28;;;4.05;;
8094;SDS011;4090;49.270;8.696;2024-02-15T09:49:08;5.10;;;3.53;;
8094;SDS011;4090;49.270;8.696;2024-02-15T09:51:51;5.38;;;3.70;;
8094;SDS011;4090;49.270;8.696;2024-02-15T09:54:35;5.30;;;3.50;;
8094;SDS011;4090;49.270;8.696;2024-02-15T09:57:19;5.10;;;3.65;;
8094;SDS011;4090;49.270;8.696;2024-02-15T10:00:03;6.63;;;3.80;;
8094;SDS011;4090;49.270;8.696;2024-02-15T10:02:49;6.47;;;4.03;;
8094;SDS011;4090;49.270;8.696;2024-02-15T10:05:33;6.45;;;3.25;;
8094;SDS011;4090;49.270;8.696;2024-02-15T10:08:15;5.95;;;3.45;;
8094;SDS011;4090;49.270;8.696;2024-02-15T10:11:07;5.53;;;3.40;;
8094;SDS011;4090;49.270;8.696;2024-02-15T10:13:49;5.57;;;3.10;;
8094;SDS011;4090;49.270;8.696;2024-02-15T10:16:31;7.55;;;3.28;;
8094;SDS011;4090;49.270;8.696;2024-02-15T10:19:17;5.32;;;2.88;;
8094;SDS011;4090;49.270;8.696;2024-02-15T10:22:05;4.43;;;2.78;;
8094;SDS011;4090;49.270;8.696;2024-02-15T10:24:48;5.13;;;3.50;;
8094;SDS011;4090;49.270;8.696;2024-02-15T10:27:30;5.15;;;2.90;;
8094;SDS011;4090;49.270;8.696;2024-02-15T10:30:18;3.78;;;2.80;;
8094;SDS011;4090;49.270;8.696;2024-02-15T10:33:01;8.02;;;3.28;;
8094;SDS011;4090;49.270;8.696;2024-02-15T10:35:45;4.63;;;2.83;;
8094;SDS011;4090;49.270;8.696;2024-02-15T10:38:26;5.78;;;3.28;;
8094;SDS011;4090;49.270;8.696;2024-02-15T10:41:09;5.05;;;3.05;;
8094;SDS011;4090;49.270;8.696;2024-02-15T10:43:51;6.57;;;3.20;;
8094;SDS011;4090;49.270;8.696;2024-02-15T10:46:34;5.20;;;3.08;;
8094;SDS011;4090;49.270;8.696;2024-02-15T10:49:19;5.20;;;2.70;;
8094;SDS011;4090;49.270;8.696;2024-02-15T10:52:04;3.70;;;2.55;;
8094;SDS011;4090;49.270;8.696;2024-02-15T10:54:47;7.30;;;3.00;;
8094;SDS011;4090;49.270;8.696;2024-02-15T10:57:37;4.50;;;3.10;;
8094;SDS011;4090;49.270;8.696;2024-02-15T11:00:23;5.88;;;3.53;;
8094;SDS011;4090;49.270;8.696;2024-02-15T11:03:12;5.38;;;3.00;;
8094;SDS011;4090;49.270;8.696;2024-02-15T11:06:00;3.75;;;2.83;;
8094;SDS011;4090;49.270;8.696;2024-02-15T11:08:48;4.88;;;2.72;;
8094;SDS011;4090;49.270;8.696;2024-02-15T11:11:30;4.72;;;2.60;;
8094;SDS011;4090;49.270;8.696;2024-02-15T11:14:23;3.10;;;2.20;;
8094;SDS011;4090;49.270;8.696;2024-02-15T11:17:09;6.43;;;2.63;;
8094;SDS011;4090;49.270;8.696;2024-02-15T11:19:53;4.38;;;2.63;;
8094;SDS011;4090;49.270;8.696;2024-02-15T11:22:36;4.65;;;2.40;;
8094;SDS011;4090;49.270;8.696;2024-02-15T11:25:20;3.35;;;2.28;;
8094;SDS011;4090;49.270;8.696;2024-02-15T11:34:41;1.92;;;1.00;;
8094;SDS011;4090;49.270;8.696;2024-02-15T11:43:53;0.90;;;0.90;;
8094;SDS011;4090;49.270;8.696;2024-02-15T11:46:38;1.02;;;0.93;;
8094;SDS011;4090;49.270;8.696;2024-02-15T11:49:21;1.42;;;1.00;;
8094;SDS011;4090;49.270;8.696;2024-02-15T11:52:08;0.85;;;0.85;;
8094;SDS011;4090;49.270;8.696;2024-02-15T11:54:50;2.00;;;1.17;;
8094;SDS011;4090;49.270;8.696;2024-02-15T11:57:34;5.03;;;1.10;;
8094;SDS011;4090;49.270;8.696;2024-02-15T12:00:28;4.28;;;1.13;;
8094;SDS011;4090;49.270;8.696;2024-02-15T12:03:27;2.10;;;0.85;;
8094;SDS011;4090;49.270;8.696;2024-02-15T12:06:27;1.17;;;0.93;;
8094;SDS011;4090;49.270;8.696;2024-02-15T12:09:26;5.40;;;1.35;;
8094;SDS011;4090;49.270;8.696;2024-02-15T12:12:26;1.40;;;0.88;;
8094;SDS011;4090;49.270;8.696;2024-02-15T12:15:27;1.98;;;1.00;;
8094;SDS011;4090;49.270;8.696;2024-02-15T12:18:27;1.17;;;0.90;;
8094;SDS011;4090;49.270;8.696;2024-02-15T12:21:23;1.08;;;0.68;;
8094;SDS011;4090;49.270;8.696;2024-02-15T12:24:07;3.42;;;1.10;;
8094;SDS011;4090;49.270;8.696;2024-02-15T12:26:49;2.08;;;1.05;;
8094;SDS011;4090;49.270;8.696;2024-02-15T12:29:31;1.70;;;1.02;;
8094;SDS011;4090;49.270;8.696;2024-02-15T12:32:20;1.58;;;0.85;;
8094;SDS011;4090;49.270;8.696;2024-02-15T12:35:09;1.83;;;0.73;;
8094;SDS011;4090;49.270;8.696;2024-02-15T12:38:00;1.55;;;1.13;;
8094;SDS011;4090;49.270;8.696;2024-02-15T12:40:45;1.77;;;0.90;;
8094;SDS011;4090;49.270;8.696;2024-02-15T12:43:27;2.67;;;1.13;;
8094;SDS011;4090;49.270;8.696;2024-02-15T12:46:10;1.58;;;0.90;;
8094;SDS011;4090;49.270;8.696;2024-02-15T12:49:07;2.20;;;0.90;;
8094;SDS011;4090;49.270;8.696;2024-02-15T12:51:53;5.03;;;1.08;;
8094;SDS011;4090;49.270;8.696;2024-02-15T12:55:05;2.30;;;1.05;;
8094;SDS011;4090;49.270;8.696;2024-02-15T12:57:57;1.08;;;0.82;;
8094;SDS011;4090;49.270;8.696;2024-02-15T13:00:39;2.00;;;1.08;;
8094;SDS011;4090;49.270;8.696;2024-02-15T13:03:21;1.55;;;1.00;;
8094;SDS011;4090;49.270;8.696;2024-02-15T13:06:05;1.80;;;0.82;;
8094;SDS011;4090;49.270;8.696;2024-02-15T13:08:48;1.00;;;0.80;;
8094;SDS011;4090;49.270;8.696;2024-02-15T13:11:30;2.47;;;1.38;;
8094;SDS011;4090;49.270;8.696;2024-02-15T13:14:14;1.90;;;0.95;;
8094;SDS011;4090;49.270;8.696;2024-02-15T13:16:56;1.23;;;1.13;;
8094;SDS011;4090;49.270;8.696;2024-02-15T13:19:38;2.80;;;1.20;;
8094;SDS011;4090;49.270;8.696;2024-02-15T13:22:21;3.10;;;1.00;;
8094;SDS011;4090;49.270;8.696;2024-02-15T13:25:05;2.92;;;1.25;;
8094;SDS011;4090;49.270;8.696;2024-02-15T13:27:49;2.92;;;1.10;;
8094;SDS011;4090;49.270;8.696;2024-02-15T13:30:31;2.20;;;1.20;;
8094;SDS011;4090;49.270;8.696;2024-02-15T13:33:14;2.53;;;1.13;;
8094;SDS011;4090;49.270;8.696;2024-02-15T13:35:56;3.42;;;1.33;;
8094;SDS011;4090;49.270;8.696;2024-02-15T13:38:39;2.28;;;1.00;;
8094;SDS011;4090;49.270;8.696;2024-02-15T13:41:22;5.68;;;0.82;;
8094;SDS011;4090;49.270;8.696;2024-02-15T13:44:04;3.63;;;1.10;;
8094;SDS011;4090;49.270;8.696;2024-02-15T13:46:47;1.60;;;1.00;;
8094;SDS011;4090;49.270;8.696;2024-02-15T13:49:30;4.45;;;1.20;;
8094;SDS011;4090;49.270;8.696;2024-02-15T13:52:14;2.88;;;1.10;;
8094;SDS011;4090;49.270;8.696;2024-02-15T13:54:58;3.20;;;1.42;;
8094;SDS011;4090;49.270;8.696;2024-02-15T13:57:41;4.50;;;1.45;;
8094;SDS011;4090;49.270;8.696;2024-02-15T14:00:23;1.20;;;1.10;;
8094;SDS011;4090;49.270;8.696;2024-02-15T14:03:10;1.95;;;1.50;;
8094;SDS011;4090;49.270;8.696;2024-02-15T14:05:55;2.25;;;1.25;;
8094;SDS011;4090;49.270;8.696;2024-02-15T14:08:38;1.30;;;1.00;;
8094;SDS011;4090;49.270;8.696;2024-02-15T14:11:21;3.40;;;1.48;;
8094;SDS011;4090;49.270;8.696;2024-02-15T14:14:03;2.78;;;1.30;;
8094;SDS011;4090;49.270;8.696;2024-02-15T14:16:45;2.92;;;1.50;;
8094;SDS011;4090;49.270;8.696;2024-02-15T14:19:28;1.60;;;1.30;;
8094;SDS011;4090;49.270;8.696;2024-02-15T14:22:09;1.85;;;1.10;;
8094;SDS011;4090;49.270;8.696;2024-02-15T14:24:56;1.52;;;1.10;;
8094;SDS011;4090;49.270;8.696;2024-02-15T14:27:39;1.77;;;1.02;;
8094;SDS011;4090;49.270;8.696;2024-02-15T14:30:21;2.53;;;1.20;;
8094;SDS011;4090;49.270;8.696;2024-02-15T14:33:20;2.15;;;1.30;;
8094;SDS011;4090;49.270;8.696;2024-02-15T14:36:03;2.50;;;1.42;;
8094;SDS011;4090;49.270;8.696;2024-02-15T14:38:45;3.33;;;1.52;;
8094;SDS011;4090;49.270;8.696;2024-02-15T14:41:28;1.80;;;1.38;;
8094;SDS011;4090;49.270;8.696;2024-02-15T14:44:12;2.92;;;1.23;;
8094;SDS011;4090;49.270;8.696;2024-02-15T14:46:54;2.60;;;1.30;;
8094;SDS011;4090;49.270;8.696;2024-02-15T14:49:36;2.35;;;1.10;;
8094;SDS011;4090;49.270;8.696;2024-02-15T14:52:19;2.35;;;1.20;;
8094;SDS011;4090;49.270;8.696;2024-02-15T14:55:01;2.67;;;1.30;;
8094;SDS011;4090;49.270;8.696;2024-02-15T14:57:45;6.10;;;1.50;;
8094;SDS011;4090;49.270;8.696;2024-02-15T15:00:29;1.77;;;1.20;;
8094;SDS011;4090;49.270;8.696;2024-02-15T15:03:10;3.47;;;1.20;;
8094;SDS011;4090;49.270;8.696;2024-02-15T15:05:53;2.65;;;1.02;;
8094;SDS011;4090;49.270;8.696;2024-02-15T15:08:53;2.22;;;1.40;;
8094;SDS011;4090;49.270;8.696;2024-02-15T15:11:52;1.05;;;0.95;;
8094;SDS011;4090;49.270;8.696;2024-02-15T15:14:51;3.17;;;1.30;;
8094;SDS011;4090;49.270;8.696;2024-02-15T15:17:34;3.63;;;0.95;;
8094;SDS011;4090;49.270;8.696;2024-02-15T15:20:18;6.32;;;1.20;;
8094;SDS011;4090;49.270;8.696;2024-02-15T15:23:00;1.17;;;1.05;;
8094;SDS011;4090;49.270;8.696;2024-02-15T15:25:42;1.13;;;1.02;;
8094;SDS011;4090;49.270;8.696;2024-02-15T15:28:24;2.03;;;1.10;;
8094;SDS011;4090;49.270;8.696;2024-02-15T15:31:06;1.80;;;1.15;;
8094;SDS011;4090;49.270;8.696;2024-02-15T15:33:49;3.00;;;1.25;;
8094;SDS011;4090;49.270;8.696;2024-02-15T15:36:32;3.67;;;1.27;;
8094;SDS011;4090;49.270;8.696;2024-02-15T15:39:15;3.10;;;1.40;;
8094;SDS011;4090;49.270;8.696;2024-02-15T15:41:57;3.20;;;1.50;;
8094;SDS011;4090;49.270;8.696;2024-02-15T15:44:39;2.13;;;1.15;;
8094;SDS011;4090;49.270;8.696;2024-02-15T15:47:21;4.18;;;1.60;;
8094;SDS011;4090;49.270;8.696;2024-02-15T15:50:05;2.03;;;1.25;;
8094;SDS011;4090;49.270;8.696;2024-02-15T15:52:47;1.85;;;1.10;;
8094;SDS011;4090;49.270;8.696;2024-02-15T15:55:30;1.63;;;1.20;;
8094;SDS011;4090;49.270;8.696;2024-02-15T15:58:12;3.97;;;1.35;;
8094;SDS011;4090;49.270;8.696;2024-02-15T16:00:54;1.58;;;1.13;;
8094;SDS011;4090;49.270;8.696;2024-02-15T16:03:36;1.35;;;1.10;;
8094;SDS011;4090;49.270;8.696;2024-02-15T16:06:21;1.30;;;1.10;;
8094;SDS011;4090;49.270;8.696;2024-02-15T16:09:03;4.13;;;1.30;;
8094;SDS011;4090;49.270;8.696;2024-02-15T16:11:45;7.00;;;1.30;;
8094;SDS011;4090;49.270;8.696;2024-02-15T16:14:28;3.20;;;1.33;;
8094;SDS011;4090;49.270;8.696;2024-02-15T16:17:11;2.88;;;1.30;;
8094;SDS011;4090;49.270;8.696;2024-02-15T16:19:53;2.20;;;1.33;;
8094;SDS011;4090;49.270;8.696;2024-02-15T16:22:36;1.77;;;1.27;;
8094;SDS011;4090;49.270;8.696;2024-02-15T16:25:19;2.90;;;1.25;;
8094;SDS011;4090;49.270;8.696;2024-02-15T16:28:00;1.60;;;1.30;;
8094;SDS011;4090;49.270;8.696;2024-02-15T16:30:47;4.32;;;1.60;;
8094;SDS011;4090;49.270;8.696;2024-02-15T16:33:29;2.00;;;1.50;;
8094;SDS011;4090;49.270;8.696;2024-02-15T16:36:11;2.22;;;1.38;;
8094;SDS011;4090;49.270;8.696;2024-02-15T16:38:55;1.63;;;1.52;;
8094;SDS011;4090;49.270;8.696;2024-02-15T16:41:37;1.88;;;1.40;;
8094;SDS011;4090;49.270;8.696;2024-02-15T16:44:20;1.40;;;1.23;;
8094;SDS011;4090;49.270;8.696;2024-02-15T16:47:02;2.35;;;1.85;;
8094;SDS011;4090;49.270;8.696;2024-02-15T16:49:44;1.63;;;1.40;;
8094;SDS011;4090;49.270;8.696;2024-02-15T16:52:26;1.80;;;1.70;;
8094;SDS011;4090;49.270;8.696;2024-02-15T16:55:10;1.85;;;1.52;;
8094;SDS011;4090;49.270;8.696;2024-02-15T16:57:52;2.88;;;1.80;;
8094;SDS011;4090;49.270;8.696;2024-02-15T17:00:40;3.95;;;2.08;;
8094;SDS011;4090;49.270;8.696;2024-02-15T17:03:22;6.05;;;1.90;;
8094;SDS011;4090;49.270;8.696;2024-02-15T17:06:04;4.32;;;2.10;;
8094;SDS011;4090;49.270;8.696;2024-02-15T17:08:46;5.78;;;2.70;;
8094;SDS011;4090;49.270;8.696;2024-02-15T17:11:35;6.07;;;2.83;;